Time;durP1;ratioP1;P1;durP2;ratioP2;P2;SDS_P1;SDS_P2;PMS_P1;PMS_P2;Temp;Humidity;BMP_temperature;BMP_pressure;BME280_temperature;BME280_humidity;BME280_pressure;Samples;Min_cycle;Max_cycle;Signal;HPM_P1;HPM_P2
2022/06/03 00:01:35;;;;;;;2.72;1.65;;;12.80;99.90;;;;;;5082607;28;20270;-60
2022/06/03 00:04:28;;;;;;;4.47;1.60;;;12.80;99.90;;;;;;5071522;28;20187;-60
2022/06/03 00:07:20;;;;;;;2.45;1.50;;;12.80;99.90;;;;;;5090314;28;20172;-60
2022/06/03 00:10:21;;;;;;;3.22;1.67;;;12.70;99.90;;;;;;5091306;28;20168;-60
2022/06/03 00:12:47;;;;;;;2.75;1.60;;;;;;;;;;5081632;28;20242;-61
2022/06/03 00:15:26;;;;;;;2.40;1.58;;;12.60;99.90;;;;;;5091248;28;20219;-60
2022/06/03 00:18:10;;;;;;;2.17;1.35;;;12.70;99.90;;;;;;5091200;28;20184;-60
2022/06/03 00:20:36;;;;;;;3.40;1.70;;;;;;;;;;5090891;28;20250;-60
2022/06/03 00:23:23;;;;;;;7.45;1.80;;;12.60;99.90;;;;;;5090829;28;20711;-60
2022/06/03 00:26:12;;;;;;;2.42;1.80;;;12.40;99.90;;;;;;5091118;28;20175;-60
2022/06/03 00:28:50;;;;;;;6.45;1.73;;;12.40;99.90;;;;;;5072721;28;20173;-60
2022/06/03 00:31:34;;;;;;;2.30;1.70;;;12.20;99.90;;;;;;5091079;28;20219;-60
2022/06/03 00:34:32;;;;;;;2.47;1.80;;;12.10;99.90;;;;;;5087400;28;20175;-60
2022/06/03 00:37:21;;;;;;;8.05;1.80;;;12.10;99.90;;;;;;5085059;28;20187;-59
2022/06/03 00:40:09;;;;;;;3.40;1.90;;;12.00;99.90;;;;;;5070881;28;20184;-60
2022/06/03 00:42:55;;;;;;;6.33;2.10;;;11.80;99.90;;;;;;5090803;28;20180;-60
2022/06/03 00:45:49;;;;;;;8.85;2.17;;;11.80;99.90;;;;;;5090977;28;20205;-60
2022/06/03 00:48:39;;;;;;;4.17;2.37;;;11.70;99.90;;;;;;5089564;28;20175;-60
2022/06/03 00:51:42;;;;;;;6.97;2.30;;;11.70;99.90;;;;;;5090849;28;20207;-60
2022/06/03 00:54:38;;;;;;;5.20;2.50;;;11.60;99.90;;;;;;5087849;28;20214;-60
2022/06/03 00:57:19;;;;;;;12.30;2.30;;;11.50;99.90;;;;;;5079873;28;20253;-60
2022/06/03 00:59:45;;;;;;;9.37;2.43;;;;;;;;;;5090624;28;20635;-60
2022/06/03 01:02:26;;;;;;;10.77;2.60;;;11.40;99.90;;;;;;5090105;28;20230;-61
2022/06/03 01:04:52;;;;;;;12.20;2.97;;;;;;;;;;5090096;28;20667;-60
2022/06/03 01:07:18;;;;;;;10.87;2.60;;;;;;;;;;5090270;28;20237;-60
2022/06/03 01:10:02;;;;;;;9.73;2.50;;;11.40;99.90;;;;;;5089944;28;20256;-60
2022/06/03 01:12:50;;;;;;;5.53;2.70;;;11.40;99.90;;;;;;5090269;28;20242;-61
2022/06/03 01:15:47;;;;;;;4.77;2.30;;;11.10;99.90;;;;;;5090444;28;20187;-60
2022/06/03 01:18:22;;;;;;;7.00;2.50;;;11.20;99.90;;;;;;5090432;28;20546;-60
2022/06/03 01:21:24;;;;;;;7.57;2.77;;;11.20;99.90;;;;;;5090653;28;20215;-60
2022/06/03 01:23:50;;;;;;;10.80;2.83;;;;;;;;;;5087969;28;20233;-60
2022/06/03 01:26:43;;;;;;;4.27;2.70;;;11.30;99.90;;;;;;5089967;28;20650;-60
2022/06/03 01:29:09;;;;;;;5.17;2.23;;;;;;;;;;5090338;28;20656;-60
2022/06/03 01:32:01;;;;;;;4.83;2.70;;;11.20;99.90;;;;;;5090258;28;20191;-60
2022/06/03 01:34:27;;;;;;;3.73;2.50;;;;;;;;;;5090050;28;20207;-60
2022/06/03 01:37:30;;;;;;;6.10;2.50;;;11.40;99.90;;;;;;5090098;28;20855;-61
2022/06/03 01:40:02;;;;;;;7.80;2.83;;;11.50;99.90;;;;;;5084886;28;20172;-60
2022/06/03 01:43:05;;;;;;;4.00;3.07;;;11.00;99.90;;;;;;5090134;28;20648;-64
2022/06/03 01:45:51;;;;;;;4.97;3.00;;;11.50;99.90;;;;;;5090756;28;20167;-60
2022/06/03 01:48:28;;;;;;;5.47;2.97;;;11.50;99.90;;;;;;5090388;28;20663;-64
2022/06/03 01:51:03;;;;;;;4.17;2.60;;;11.60;99.90;;;;;;5090444;28;20520;-59
2022/06/03 01:53:30;;;;;;;6.90;2.87;;;;;;;;;;5090178;28;20176;-59
2022/06/03 01:56:42;;;;;;;9.90;3.00;;;11.30;99.90;;;;;;5088504;28;20172;-59
2022/06/03 01:59:34;;;;;;;6.47;2.90;;;11.40;99.90;;;;;;5090273;28;20717;-59
2022/06/03 02:02:26;;;;;;;5.67;3.10;;;11.40;99.90;;;;;;5089657;28;20187;-59
2022/06/03 02:05:28;;;;;;;9.00;3.03;;;11.30;99.90;;;;;;5081102;28;20184;-59
2022/06/03 02:08:24;;;;;;;6.67;2.50;;;11.10;99.90;;;;;;5089451;28;20203;-59
2022/06/03 02:11:18;;;;;;;8.03;3.10;;;11.50;99.90;;;;;;5089861;28;20180;-59
2022/06/03 02:13:58;;;;;;;8.77;3.10;;;11.30;99.90;;;;;;5082105;28;20180;-59
2022/06/03 02:16:38;;;;;;;5.33;2.90;;;11.20;99.90;;;;;;5089306;28;20172;-59
2022/06/03 02:19:22;;;;;;;6.57;3.20;;;11.10;99.90;;;;;;5089910;28;20237;-59
2022/06/03 02:22:12;;;;;;;10.13;3.33;;;11.40;99.90;;;;;;5092041;28;20262;-59
2022/06/03 02:24:52;;;;;;;6.63;3.60;;;11.20;99.90;;;;;;5093334;28;20233;-59
2022/06/03 02:27:44;;;;;;;7.07;3.07;;;11.40;99.90;;;;;;5093600;28;20172;-59
2022/06/03 02:30:43;;;;;;;6.97;3.30;;;11.50;99.90;;;;;;5093691;28;20199;-59
2022/06/03 02:33:39;;;;;;;7.13;2.97;;;11.50;99.90;;;;;;5093248;28;20325;-60
2022/06/03 02:36:41;;;;;;;6.00;3.50;;;11.50;99.90;;;;;;5093324;28;20202;-59
2022/06/03 02:39:36;;;;;;;6.40;2.70;;;11.60;99.90;;;;;;5080151;28;20175;-59
2022/06/03 02:42:16;;;;;;;4.63;3.00;;;11.50;99.90;;;;;;5082373;28;20172;-60
2022/06/03 02:44:59;;;;;;;4.80;3.20;;;11.50;99.90;;;;;;5092916;28;20179;-59
2022/06/03 02:47:46;;;;;;;4.93;2.87;;;11.20;99.90;;;;;;5093320;28;20252;-59
2022/06/03 02:50:36;;;;;;;4.20;2.73;;;11.50;99.90;;;;;;5093173;28;20180;-59
2022/06/03 02:53:33;;;;;;;4.87;2.90;;;11.50;99.90;;;;;;5092880;28;20583;-59
2022/06/03 02:56:17;;;;;;;5.37;2.90;;;11.30;99.90;;;;;;5092446;28;20192;-59
2022/06/03 02:58:54;;;;;;;7.57;3.03;;;11.40;99.90;;;;;;5092744;28;20188;-59
2022/06/03 03:01:52;;;;;;;10.77;3.40;;;11.50;99.90;;;;;;5092925;28;20180;-59
2022/06/03 03:04:26;;;;;;;6.07;3.15;;;11.60;99.90;;;;;;5089187;28;20329;-59
2022/06/03 03:07:13;;;;;;;5.37;3.27;;;11.50;99.90;;;;;;5092406;28;20179;-59
2022/06/03 03:09:40;;;;;;;7.80;3.20;;;;;;;;;;5092494;28;20245;-59
2022/06/03 03:12:33;;;;;;;4.17;3.03;;;11.40;99.90;;;;;;5092778;28;20204;-59
2022/06/03 03:15:26;;;;;;;5.30;2.90;;;11.70;99.90;;;;;;5092486;28;20179;-59
2022/06/03 03:17:52;;;;;;;4.63;2.90;;;;;;;;;;5092098;28;20218;-59
2022/06/03 03:20:39;;;;;;;4.70;3.10;;;11.80;99.90;;;;;;5091965;28;20306;-59
2022/06/03 03:23:29;;;;;;;11.13;3.20;;;11.70;99.90;;;;;;5092217;28;20179;-59
2022/06/03 03:26:12;;;;;;;9.10;3.50;;;11.50;99.90;;;;;;5091434;28;20171;-59
2022/06/03 03:28:45;;;;;;;7.17;3.10;;;11.80;99.90;;;;;;5092504;28;20172;-59
2022/06/03 03:31:13;;;;;;;6.07;3.30;;;11.70;99.90;;;;;;5092247;28;20195;-59
2022/06/03 03:34:14;;;;;;;15.32;3.53;;;11.60;99.90;;;;;;5091977;28;20187;-59
2022/06/03 03:37:11;;;;;;;4.57;3.00;;;11.70;99.90;;;;;;5089215;28;20175;-59
2022/06/03 03:40:09;;;;;;;5.17;3.20;;;11.70;99.90;;;;;;5092457;28;20164;-59
2022/06/03 03:43:04;;;;;;;7.50;3.70;;;11.30;99.90;;;;;;5091900;28;20188;-59
2022/06/03 03:45:48;;;;;;;8.77;3.47;;;11.60;99.90;;;;;;5092052;28;20171;-59
2022/06/03 03:48:41;;;;;;;6.33;3.47;;;11.70;99.90;;;;;;5091900;28;20178;-59
2022/06/03 03:51:26;;;;;;;7.27;3.83;;;11.80;99.90;;;;;;5092032;28;20195;-59
2022/06/03 03:54:13;;;;;;;9.27;3.87;;;11.80;99.90;;;;;;5092074;28;20229;-59
2022/06/03 03:56:53;;;;;;;6.50;3.97;;;11.70;99.90;;;;;;5091607;28;20230;-58
2022/06/03 03:59:43;;;;;;;7.80;3.60;;;11.80;99.90;;;;;;5091915;28;20180;-59
2022/06/03 04:02:34;;;;;;;5.57;3.78;;;11.80;99.90;;;;;;5091035;28;20174;-59
2022/06/03 04:05:21;;;;;;;9.63;3.73;;;11.90;99.90;;;;;;5090791;28;20329;-58
2022/06/03 04:07:53;;;;;;;6.27;3.60;;;11.90;99.90;;;;;;5091454;28;20258;-58
2022/06/03 04:10:56;;;;;;;7.00;3.67;;;11.60;99.90;;;;;;5091467;28;20172;-58
2022/06/03 04:13:51;;;;;;;7.77;3.50;;;11.70;99.90;;;;;;5091204;28;20187;-58
2022/06/03 04:16:58;;;;;;;10.27;3.50;;;11.90;99.90;;;;;;5071408;28;20259;-58
2022/06/03 04:19:24;;;;;;;5.10;3.60;;;;;;;;;;5029087;28;20177;-58
2022/06/03 04:22:26;;;;;;;5.45;3.88;;;11.70;99.90;;;;;;5078791;28;20281;-59
2022/06/03 04:25:35;;;;;;;6.17;3.60;;;11.80;99.90;;;;;;5091854;28;20179;-58
2022/06/03 04:28:26;;;;;;;10.20;3.53;;;11.80;99.90;;;;;;5091426;28;20179;-59
2022/06/03 04:31:16;;;;;;;8.40;4.20;;;11.80;99.90;;;;;;5091225;28;20178;-64
2022/06/03 04:34:09;;;;;;;5.28;3.20;;;11.80;99.90;;;;;;5091757;28;20180;-60
2022/06/03 04:36:38;;;;;;;7.77;3.97;;;12.10;99.90;;;;;;5091566;28;20172;-60
2022/06/03 04:39:21;;;;;;;8.90;3.43;;;11.70;99.90;;;;;;5091238;28;20175;-59
2022/06/03 04:42:01;;;;;;;5.55;3.90;;;11.70;99.90;;;;;;5091217;28;20180;-60
2022/06/03 04:44:58;;;;;;;7.97;3.90;;;11.80;99.90;;;;;;5090767;28;20255;-59
2022/06/03 04:47:44;;;;;;;5.50;3.47;;;12.00;99.90;;;;;;5087855;28;20180;-60
2022/06/03 04:50:34;;;;;;;7.82;3.47;;;12.00;99.90;;;;;;5090684;28;20179;-60
2022/06/03 04:53:24;;;;;;;7.47;3.55;;;11.90;99.90;;;;;;5090806;28;20291;-60
2022/06/03 04:56:40;;;;;;;7.45;3.90;;;12.00;99.90;;;;;;5090358;28;20210;-60
2022/06/03 04:59:27;;;;;;;7.75;3.70;;;12.00;99.90;;;;;;5091187;28;20207;-60
2022/06/03 05:02:26;;;;;;;6.70;4.27;;;12.00;99.90;;;;;;5089014;28;20172;-60
2022/06/03 05:05:10;;;;;;;7.18;3.70;;;12.00;99.90;;;;;;5090369;28;20172;-60
2022/06/03 05:07:57;;;;;;;6.40;3.88;;;12.00;99.90;;;;;;5090174;28;20172;-60
2022/06/03 05:11:07;;;;;;;6.57;3.95;;;12.10;99.90;;;;;;5090422;28;20183;-60
2022/06/03 05:14:10;;;;;;;8.57;3.92;;;12.10;99.90;;;;;;5090616;28;20218;-60
2022/06/03 05:16:38;;;;;;;7.83;3.60;;;12.20;99.90;;;;;;5090064;28;20583;-60
2022/06/03 05:19:41;;;;;;;9.95;3.78;;;12.30;99.90;;;;;;5090769;28;20168;-60
2022/06/03 05:22:31;;;;;;;8.68;3.92;;;12.20;99.90;;;;;;5090478;28;20191;-60
2022/06/03 05:25:20;;;;;;;10.05;4.75;;;12.50;99.90;;;;;;5090448;28;20313;-61
2022/06/03 05:28:01;;;;;;;9.07;4.80;;;12.30;99.90;;;;;;5074984;28;20662;-61
2022/06/03 05:30:58;;;;;;;8.45;4.45;;;12.30;99.90;;;;;;5090539;28;20168;-60
2022/06/03 05:33:48;;;;;;;11.70;4.70;;;12.00;99.90;;;;;;5073070;28;20191;-60
2022/06/03 05:36:14;;;;;;;8.35;4.70;;;;;;;;;;5090646;28;20194;-60
2022/06/03 05:39:08;;;;;;;9.70;4.63;;;12.50;99.90;;;;;;5090638;28;20695;-60
2022/06/03 05:45:33;;;;;;;9.18;4.30;;;12.70;99.90;;;;;;5089089;28;20313;-60
2022/06/03 05:48:40;;;;;;;9.82;4.57;;;12.80;99.90;;;;;;5090270;28;20183;-60
2022/06/03 05:51:23;;;;;;;15.10;4.32;;;13.00;99.90;;;;;;5067717;28;20249;-60
2022/06/03 05:54:48;;;;;;;8.23;4.53;;;13.10;99.90;;;;;;5067127;28;20246;-60
2022/06/03 05:57:19;;;;;;;14.70;4.53;;;13.20;99.90;;;;;;5005266;28;20183;-60
2022/06/03 05:59:54;;;;;;;8.77;4.55;;;13.30;99.90;;;;;;5011580;28;20440;-60
2022/06/03 06:02:34;;;;;;;6.95;4.10;;;13.40;99.90;;;;;;5055899;28;20191;-60
2022/06/03 06:05:35;;;;;;;8.80;4.82;;;13.50;99.90;;;;;;5093364;28;20232;-60
2022/06/03 06:08:15;;;;;;;8.63;4.40;;;13.50;99.90;;;;;;5093874;28;20254;-60
2022/06/03 06:11:06;;;;;;;10.52;4.80;;;13.40;99.90;;;;;;5093908;28;20175;-60
2022/06/03 06:13:56;;;;;;;8.93;4.70;;;13.60;99.90;;;;;;5093373;28;20188;-60
2022/06/03 06:16:40;;;;;;;9.20;5.18;;;13.80;99.90;;;;;;5091090;28;20225;-59
2022/06/03 06:19:15;;;;;;;9.98;5.32;;;13.80;99.90;;;;;;5092533;28;20258;-60
2022/06/03 06:22:03;;;;;;;9.40;4.88;;;14.00;99.90;;;;;;5093493;28;20222;-58
2022/06/03 06:24:34;;;;;;;9.90;4.95;;;14.00;99.90;;;;;;5092234;28;20175;-61
2022/06/03 06:27:42;;;;;;;7.40;5.47;;;14.10;99.90;;;;;;5093605;28;20172;-60
2022/06/03 06:30:17;;;;;;;10.63;6.13;;;14.10;99.90;;;;;;5078814;28;20183;-61
2022/06/03 06:33:12;;;;;;;13.43;6.47;;;14.30;99.90;;;;;;5093066;28;20718;-61
2022/06/03 06:35:59;;;;;;;15.35;6.43;;;14.60;99.90;;;;;;5093128;28;20251;-61
2022/06/03 06:38:34;;;;;;;10.23;6.30;;;14.60;99.90;;;;;;5092947;28;20229;-62
2022/06/03 06:41:21;;;;;;;11.73;7.03;;;14.80;99.90;;;;;;5093010;28;20644;-62
2022/06/03 06:43:53;;;;;;;12.05;7.43;;;14.90;99.90;;;;;;5091875;28;20183;-60
2022/06/03 06:46:19;;;;;;;12.30;7.68;;;;;;;;;;5092258;28;20656;-59
2022/06/03 06:49:03;;;;;;;12.15;7.45;;;15.30;99.90;;;;;;5092528;28;20255;-59
2022/06/03 06:51:59;;;;;;;12.38;7.32;;;15.20;99.90;;;;;;5093195;28;20207;-59
2022/06/03 06:54:37;;;;;;;15.25;8.25;;;15.60;99.90;;;;;;5079196;28;20180;-59
2022/06/03 06:57:09;;;;;;;13.77;7.50;;;15.50;99.90;;;;;;5089683;28;20179;-60
2022/06/03 06:59:41;;;;;;;13.52;7.60;;;15.80;99.90;;;;;;5093019;28;20180;-60
2022/06/03 07:02:25;;;;;;;11.75;7.82;;;15.50;99.90;;;;;;5092599;28;20683;-59
2022/06/03 07:05:05;;;;;;;10.32;7.55;;;15.60;99.90;;;;;;5092027;28;20191;-58
2022/06/03 07:07:40;;;;;;;13.15;7.65;;;15.70;99.90;;;;;;5092048;28;20179;-62
2022/06/03 07:10:23;;;;;;;15.30;8.55;;;15.80;99.90;;;;;;5092803;28;20254;-62
2022/06/03 07:12:57;;;;;;;10.77;8.32;;;15.90;99.90;;;;;;5092596;28;20207;-63
2022/06/03 07:15:31;;;;;;;18.35;8.63;;;16.00;99.90;;;;;;5091424;28;20168;-63
2022/06/03 07:21:35;;;;;;;12.63;9.23;;;15.90;99.90;;;;;;5085285;28;20257;-63
2022/06/03 07:24:14;;;;;;;14.27;10.10;;;15.80;99.90;;;;;;5092412;28;20274;-64
2022/06/03 07:26:44;;;;;;;17.00;9.63;;;15.60;99.90;;;;;;5092029;28;20171;-63
2022/06/03 07:29:20;;;;;;;17.27;10.93;;;15.50;99.90;;;;;;5092832;28;20275;-63
2022/06/03 07:31:58;;;;;;;13.27;9.68;;;15.50;99.90;;;;;;5092464;28;20207;-56
2022/06/03 07:34:46;;;;;;;15.60;10.57;;;15.40;99.90;;;;;;5092329;28;20171;-56
2022/06/03 07:37:31;;;;;;;18.58;10.63;;;15.30;99.90;;;;;;5092084;28;20192;-56
2022/06/03 07:40:06;;;;;;;14.63;10.27;;;15.70;99.90;;;;;;5092448;28;20695;-56
2022/06/03 07:42:32;;;;;;;18.58;10.32;;;;;;;;;;5092426;28;20168;-56
2022/06/03 07:45:23;;;;;;;14.73;9.73;;;16.10;99.90;;;;;;5092304;28;20660;-56
2022/06/03 07:47:50;;;;;;;14.30;10.00;;;15.90;99.90;;;;;;5091589;28;20640;-57
2022/06/03 07:50:19;;;;;;;12.60;9.55;;;16.60;99.90;;;;;;5090976;28;20569;-55
2022/06/03 07:52:54;;;;;;;12.13;9.88;;;16.40;99.90;;;;;;5091471;28;20277;-55
2022/06/03 07:55:24;;;;;;;14.30;9.52;;;16.40;99.90;;;;;;5085459;28;20170;-56
2022/06/03 07:58:15;;;;;;;15.10;10.13;;;16.60;99.90;;;;;;5092135;28;20184;-56
2022/06/03 08:00:44;;;;;;;14.55;10.40;;;16.80;99.90;;;;;;5092205;28;20172;-62
2022/06/03 08:03:18;;;;;;;13.02;9.95;;;17.00;99.90;;;;;;5091689;28;20233;-60
2022/06/03 08:05:47;;;;;;;17.48;11.10;;;17.20;99.90;;;;;;5092036;28;20194;-57
2022/06/03 08:11:05;;;;;;;14.95;9.55;;;17.50;99.90;;;;;;5091824;28;20190;-57
2022/06/03 08:13:39;;;;;;;15.25;10.70;;;17.70;99.90;;;;;;5091441;28;20184;-56
2022/06/03 08:16:13;;;;;;;17.80;10.60;;;17.20;99.90;;;;;;5091418;28;20160;-57
2022/06/03 08:18:42;;;;;;;17.75;10.95;;;17.40;99.90;;;;;;5089810;28;20180;-58
2022/06/03 08:21:13;;;;;;;13.27;10.23;;;17.40;99.90;;;;;;5091017;28;20241;-58
2022/06/03 08:23:39;;;;;;;18.67;10.68;;;17.70;99.90;;;;;;5091499;28;20176;-56
2022/06/03 08:26:16;;;;;;;15.23;10.48;;;17.90;99.90;;;;;;5091158;28;20172;-56
2022/06/03 08:28:50;;;;;;;18.75;11.27;;;18.30;99.90;;;;;;5091305;28;20248;-57
2022/06/03 08:31:20;;;;;;;19.38;11.15;;;18.70;99.90;;;;;;5091529;28;20199;-59
2022/06/03 08:33:52;;;;;;;15.00;11.45;;;18.80;99.90;;;;;;5091271;28;20178;-60
2022/06/03 08:36:22;;;;;;;14.10;9.73;;;18.90;99.90;;;;;;5091067;28;20167;-59
2022/06/03 08:38:57;;;;;;;18.83;10.27;;;19.10;99.90;;;;;;5090956;28;20257;-59
2022/06/03 08:41:40;;;;;;;13.35;10.63;;;19.00;99.90;;;;;;5091429;28;20171;-60
2022/06/03 08:44:18;;;;;;;16.35;10.10;;;19.10;99.90;;;;;;5091064;28;20565;-60
2022/06/03 08:47:06;;;;;;;13.25;9.90;;;19.40;99.90;;;;;;5090700;28;20186;-61
2022/06/03 08:50:02;;;;;;;16.77;10.98;;;18.90;99.90;;;;;;5091511;28;20176;-62
2022/06/03 08:52:54;;;;;;;14.18;9.57;;;19.10;99.90;;;;;;5090994;28;20329;-62
2022/06/03 08:55:27;;;;;;;13.70;10.48;;;18.90;99.90;;;;;;5085162;28;20171;-62
2022/06/03 08:57:59;;;;;;;16.48;10.35;;;19.00;99.90;;;;;;5077827;28;20169;-62
2022/06/03 09:00:42;;;;;;;79.55;12.40;;;19.40;99.90;;;;;;5070203;28;20172;-59
2022/06/03 09:03:13;;;;;;;20.92;10.13;;;20.20;99.90;;;;;;5085974;28;20168;-60
2022/06/03 09:05:53;;;;;;;49.35;9.77;;;20.80;99.90;;;;;;5090406;28;20619;-58
2022/06/03 09:08:42;;;;;;;123.20;12.88;;;21.20;99.90;;;;;;5079231;28;20171;-59
2022/06/03 09:11:37;;;;;;;22.90;9.05;;;21.70;99.90;;;;;;5090735;28;20184;-60
2022/06/03 09:14:12;;;;;;;13.48;8.00;;;21.70;99.90;;;;;;5070201;28;20199;-61
2022/06/03 09:16:40;;;;;;;10.00;7.53;;;22.10;99.90;;;;;;5089689;28;20178;-61
2022/06/03 09:19:15;;;;;;;19.13;8.57;;;21.70;99.90;;;;;;5090368;28;20643;-59
2022/06/03 09:21:44;;;;;;;13.15;7.90;;;21.90;99.90;;;;;;5089705;28;20234;-59
2022/06/03 09:24:17;;;;;;;15.02;7.68;;;22.10;99.90;;;;;;5090806;28;20175;-59
2022/06/03 09:26:47;;;;;;;11.93;7.15;;;22.10;99.90;;;;;;5090059;28;20180;-58
2022/06/03 09:29:14;;;;;;;10.85;7.30;;;22.40;99.90;;;;;;5087310;28;20176;-58
2022/06/03 09:31:46;;;;;;;17.23;7.82;;;21.80;99.90;;;;;;5094936;28;20204;-58
2022/06/03 09:34:13;;;;;;;10.55;6.55;;;21.70;99.90;;;;;;5095226;28;20289;-59
2022/06/03 09:36:39;;;;;;;13.27;7.00;;;;;;;;;;5094581;28;20171;-59
2022/06/03 09:39:16;;;;;;;13.18;8.20;;;21.50;99.90;;;;;;5094224;28;20179;-59
2022/06/03 09:41:45;;;;;;;10.50;7.28;;;21.20;99.90;;;;;;5090789;28;20186;-59
2022/06/03 09:44:14;;;;;;;10.20;6.80;;;21.60;99.90;;;;;;5094384;28;20250;-59
2022/06/03 09:46:42;;;;;;;14.77;7.22;;;22.20;99.90;;;;;;5094509;28;20238;-59
2022/06/03 09:49:09;;;;;;;14.65;7.18;;;22.00;99.90;;;;;;5092926;28;20186;-60
2022/06/03 09:51:55;;;;;;;12.23;7.40;;;22.20;99.90;;;;;;5094056;28;20188;-59
2022/06/03 09:54:29;;;;;;;11.65;7.25;;;22.50;99.90;;;;;;5094597;28;20266;-59
2022/06/03 09:57:00;;;;;;;15.18;6.70;;;22.70;99.90;;;;;;5094504;28;20198;-60
2022/06/03 09:59:27;;;;;;;12.25;7.30;;;22.80;99.90;;;;;;5094475;28;20168;-59
2022/06/03 10:01:53;;;;;;;16.98;7.68;;;22.60;99.90;;;;;;5093631;28;20608;-58
2022/06/03 10:04:22;;;;;;;14.00;7.18;;;22.70;99.90;;;;;;5093886;28;20176;-59
2022/06/03 10:06:51;;;;;;;11.15;6.57;;;;;;;;;;5093598;28;20263;-59
2022/06/03 10:17:46;;;;;;;14.77;7.32;;;23.50;99.90;;;;;;5092280;28;20207;-59
2022/06/03 10:20:12;;;;;;;12.07;6.18;;;23.80;99.90;;;;;;5091763;28;20203;-60
2022/06/03 10:22:38;;;;;;;11.25;7.72;;;;;;;;;;5091624;28;20187;-59
2022/06/03 10:25:05;;;;;;;11.77;7.18;;;24.30;99.90;;;;;;5091790;28;20178;-59
2022/06/03 10:27:30;;;;;;;12.35;6.10;;;24.40;99.90;;;;;;5091949;28;20171;-59
2022/06/03 10:29:59;;;;;;;11.98;6.50;;;24.80;99.90;;;;;;5092583;28;20183;-60
2022/06/03 10:32:25;;;;;;;11.15;6.30;;;24.10;99.90;;;;;;5093811;28;20204;-59
2022/06/03 10:34:57;;;;;;;10.77;5.55;;;24.80;99.90;;;;;;5093217;28;20195;-59
2022/06/03 10:37:26;;;;;;;8.18;5.85;;;25.40;99.90;;;;;;5093119;28;20176;-59
2022/06/03 10:39:55;;;;;;;9.18;5.88;;;24.80;99.90;;;;;;5093042;28;20248;-60
2022/06/03 10:42:23;;;;;;;13.55;5.57;;;25.00;99.90;;;;;;5092123;28;20179;-59
2022/06/03 10:44:55;;;;;;;8.73;4.63;;;24.90;99.90;;;;;;5093262;28;20168;-59
2022/06/03 10:47:39;;;;;;;8.05;4.30;;;24.50;99.90;;;;;;5092719;28;20203;-59
2022/06/03 10:50:11;;;;;;;8.35;3.95;;;24.20;99.90;;;;;;5092609;28;20194;-59
2022/06/03 11:01:29;;;;;;;8.93;6.63;;;23.60;99.90;;;;;;5092998;28;20655;-60
2022/06/03 11:03:56;;;;;;;6.07;4.80;;;23.80;99.90;;;;;;5092239;28;20184;-60
2022/06/03 11:06:25;;;;;;;9.27;4.90;;;24.00;99.90;;;;;;5092574;28;20202;-59
2022/06/03 11:08:58;;;;;;;13.70;4.60;;;24.30;99.90;;;;;;5091881;28;20263;-59
2022/06/03 11:11:44;;;;;;;8.35;3.75;;;24.30;99.90;;;;;;5072362;28;20254;-59
2022/06/03 11:14:34;;;;;;;9.43;4.45;;;24.20;99.90;;;;;;5072168;28;20180;-59
2022/06/03 11:17:05;;;;;;;9.45;4.38;;;23.60;99.90;;;;;;5091362;28;20180;-59
2022/06/03 11:19:38;;;;;;;9.85;3.70;;;24.00;99.90;;;;;;5092125;28;20266;-59
2022/06/03 11:22:33;;;;;;;8.18;4.72;;;24.60;99.90;;;;;;5092545;28;20175;-59
2022/06/03 11:25:02;;;;;;;12.30;4.38;;;;;;;;;;5091038;28;20564;-60
2022/06/03 11:27:51;;;;;;;8.38;3.50;;;24.30;99.90;;;;;;5092207;28;20180;-59
2022/06/03 11:30:30;;;;;;;6.97;3.42;;;24.80;99.90;;;;;;5092714;28;20229;-60
2022/06/03 11:33:01;;;;;;;4.55;3.20;;;25.40;99.90;;;;;;5092087;28;20279;-59
2022/06/03 11:35:38;;;;;;;6.15;3.40;;;24.20;99.90;;;;;;5092182;28;20172;-59
2022/06/03 11:38:06;;;;;;;8.77;2.58;;;25.00;99.90;;;;;;5092594;28;20175;-59
2022/06/03 11:40:37;;;;;;;8.63;2.70;;;25.60;99.90;;;;;;5092251;28;20163;-60
2022/06/03 11:43:22;;;;;;;6.05;2.67;;;26.50;99.90;;;;;;5092423;28;20200;-61
2022/06/03 11:45:55;;;;;;;5.60;3.30;;;26.80;99.90;;;;;;5091768;28;20228;-61
2022/06/03 11:48:41;;;;;;;6.85;3.03;;;26.40;99.90;;;;;;5091956;28;20555;-60
2022/06/03 11:51:08;;;;;;;8.60;3.47;;;25.90;99.90;;;;;;5091900;28;20651;-60
2022/06/03 11:53:39;;;;;;;6.03;2.97;;;25.40;99.90;;;;;;5091917;28;20255;-61
2022/06/03 11:56:09;;;;;;;8.05;3.17;;;25.00;99.90;;;;;;5091868;28;20191;-60
2022/06/03 11:58:43;;;;;;;6.45;2.90;;;24.60;99.90;;;;;;5092501;28;20227;-59
2022/06/03 12:01:22;;;;;;;7.32;3.20;;;24.70;99.90;;;;;;5090129;28;20159;-61
2022/06/03 12:04:06;;;;;;;4.85;2.90;;;24.60;99.90;;;;;;5091969;28;20263;-60
2022/06/03 12:07:08;;;;;;;6.38;2.70;;;24.40;99.90;;;;;;5091314;28;20171;-61
2022/06/03 12:09:57;;;;;;;8.73;2.90;;;24.90;99.90;;;;;;5091845;28;20254;-61
2022/06/03 12:15:34;;;;;;;6.00;2.35;;;23.00;99.90;;;;;;5091680;28;20225;-60
2022/06/03 12:18:06;;;;;;;8.77;2.72;;;23.40;99.90;;;;;;5071078;28;20286;-60
2022/06/03 12:20:32;;;;;;;5.95;3.00;;;;;;;;;;5070990;28;20696;-60
2022/06/03 12:23:18;;;;;;;8.50;3.30;;;23.70;99.90;;;;;;5071400;28;20176;-59
2022/06/03 12:25:53;;;;;;;5.65;3.55;;;23.50;99.90;;;;;;5051456;28;20286;-60
2022/06/03 12:28:41;;;;;;;7.43;4.20;;;22.90;99.90;;;;;;5091408;28;20175;-60
2022/06/03 12:31:12;;;;;;;7.15;3.70;;;22.60;99.90;;;;;;5090986;28;20164;-60
2022/06/03 12:33:49;;;;;;;7.38;3.60;;;22.70;99.90;;;;;;5091305;28;20163;-60
2022/06/03 12:36:24;;;;;;;11.48;3.90;;;22.80;99.90;;;;;;5076096;28;20562;-61
2022/06/03 12:39:12;;;;;;;7.05;3.28;;;22.80;99.90;;;;;;5090904;28;20328;-61
2022/06/03 12:41:44;;;;;;;8.15;4.07;;;23.50;99.90;;;;;;5088165;28;20258;-60
2022/06/03 12:44:48;;;;;;;8.10;3.40;;;23.00;99.90;;;;;;5090764;28;20164;-60
2022/06/03 12:47:31;;;;;;;6.50;3.35;;;23.20;99.90;;;;;;5090274;28;20191;-60
2022/06/03 12:50:25;;;;;;;9.80;4.32;;;22.90;99.90;;;;;;5090955;28;20180;-60
2022/06/03 12:52:57;;;;;;;7.80;4.40;;;21.80;99.90;;;;;;5090770;28;20250;-61
2022/06/03 12:55:30;;;;;;;10.88;3.95;;;21.90;99.90;;;;;;5090637;28;20163;-60
2022/06/03 12:58:15;;;;;;;7.95;3.65;;;22.20;99.90;;;;;;5087109;28;20534;-60
2022/06/03 13:00:58;;;;;;;7.03;3.40;;;22.70;99.90;;;;;;5089667;28;20228;-61
2022/06/03 13:03:24;;;;;;;6.93;3.92;;;;;;;;;;5075633;28;20238;-60
2022/06/03 13:05:55;;;;;;;7.20;3.75;;;22.80;99.90;;;;;;5070470;28;20176;-61
2022/06/03 13:08:26;;;;;;;7.78;3.58;;;22.70;99.90;;;;;;5070753;28;20234;-60
2022/06/03 13:11:02;;;;;;;10.05;3.80;;;22.90;99.90;;;;;;5070577;28;20173;-60
2022/06/03 13:13:31;;;;;;;7.22;3.47;;;23.10;99.90;;;;;;5070455;28;20238;-60
2022/06/03 13:16:19;;;;;;;7.07;3.67;;;23.20;99.90;;;;;;5080459;28;20202;-60
2022/06/03 13:18:51;;;;;;;7.30;4.00;;;22.60;99.90;;;;;;5089378;28;20194;-60
2022/06/03 13:21:19;;;;;;;5.40;3.30;;;22.80;99.90;;;;;;5090174;28;20250;-61
2022/06/03 13:23:45;;;;;;;6.45;3.78;;;;;;;;;;5090459;28;20191;-61
2022/06/03 13:26:23;;;;;;;9.60;3.38;;;22.80;99.90;;;;;;5090603;28;20519;-60
2022/06/03 13:29:02;;;;;;;6.32;3.40;;;23.00;99.90;;;;;;5090575;28;20178;-63
2022/06/03 13:31:50;;;;;;;5.05;3.17;;;22.70;99.90;;;;;;5090416;28;20200;-63
2022/06/03 13:34:26;;;;;;;10.43;3.47;;;22.50;99.90;;;;;;5090251;28;20179;-63
2022/06/03 13:36:52;;;;;;;6.30;3.60;;;;;;;;;;5090123;28;20197;-63
2022/06/03 13:39:24;;;;;;;8.38;3.13;;;22.40;99.90;;;;;;5090375;28;20660;-63
2022/06/03 13:44:56;;;;;;;7.15;3.55;;;;;;;;;;5090538;28;20285;-63
2022/06/03 13:47:47;;;;;;;7.88;4.47;;;22.70;99.90;;;;;;5089988;28;20171;-64
2022/06/03 13:50:13;;;;;;;10.77;4.28;;;23.10;99.90;;;;;;5090368;28;20184;-64
2022/06/03 13:52:48;;;;;;;13.00;5.28;;;22.70;99.90;;;;;;5090201;28;20744;-64
2022/06/03 13:55:38;;;;;;;6.93;3.55;;;22.40;99.90;;;;;;5090511;28;20246;-63
2022/06/03 13:58:18;;;;;;;10.55;4.78;;;22.70;99.90;;;;;;5090296;28;20176;-63
2022/06/03 14:00:50;;;;;;;8.02;5.88;;;22.60;99.90;;;;;;5090246;28;20160;-64
2022/06/03 14:03:27;;;;;;;20.30;5.28;;;22.70;99.90;;;;;;5090120;28;20156;-63
2022/06/03 14:06:14;;;;;;;8.60;4.82;;;22.50;99.90;;;;;;5089259;28;20183;-63
2022/06/03 14:08:46;;;;;;;9.40;4.90;;;22.60;99.90;;;;;;5076491;28;20256;-63
2022/06/03 14:11:19;;;;;;;10.65;4.97;;;22.50;99.90;;;;;;5089799;28;20654;-63
2022/06/03 14:14:18;;;;;;;9.13;5.57;;;22.50;99.90;;;;;;5089488;28;20187;-63
2022/06/03 14:16:55;;;;;;;10.05;5.80;;;22.50;99.90;;;;;;5090583;28;20163;-64
2022/06/03 14:19:32;;;;;;;8.75;4.28;;;22.50;99.90;;;;;;5093342;28;20251;-64
2022/06/03 14:22:03;;;;;;;6.95;3.58;;;22.30;99.90;;;;;;5073213;28;20708;-64
2022/06/03 14:24:38;;;;;;;6.22;3.10;;;22.00;99.90;;;;;;5077958;28;20175;-63
2022/06/03 14:27:19;;;;;;;7.30;3.20;;;21.90;99.90;;;;;;5093479;28;20285;-64
2022/06/03 14:29:55;;;;;;;6.47;2.60;;;21.60;99.90;;;;;;5093255;28;20176;-65
2022/06/03 14:32:23;;;;;;;5.10;2.80;;;20.10;99.90;;;;;;5078315;28;20200;-64
2022/06/03 14:35:04;;;;;;;8.00;3.20;;;21.20;99.90;;;;;;5074906;28;20172;-63